Time;durP1;ratioP1;P1;durP2;ratioP2;P2;SDS_P1;SDS_P2;PMS_P1;PMS_P2;Temp;Humidity;BMP_temperature;BMP_pressure;BME280_temperature;BME280_humidity;BME280_pressure;Samples;Min_cycle;Max_cycle;Signal;HPM_P1;HPM_P2
2022/10/12 00:00:17;;;;;;;14.60;13.03;;;;;;;12.63;100.00;100136.44;6278461;22;20217;-86
2022/10/12 00:02:43;;;;;;;15.30;13.57;;;;;;;12.58;100.00;100128.19;6306616;22;20722;-88
2022/10/12 00:05:10;;;;;;;14.47;12.73;;;;;;;12.63;100.00;100128.38;6278762;22;20216;-87
2022/10/12 00:07:36;;;;;;;14.60;13.10;;;;;;;12.53;100.00;100128.84;6305119;22;20215;-88
2022/10/12 00:10:04;;;;;;;14.57;13.03;;;;;;;12.54;100.00;100135.06;6276501;22;20209;-88
2022/10/12 00:12:30;;;;;;;14.50;13.03;;;;;;;12.57;100.00;100129.22;6303984;22;20205;-87
2022/10/12 00:14:57;;;;;;;14.47;12.97;;;;;;;12.55;100.00;100125.97;6304234;22;20212;-86
2022/10/12 00:17:24;;;;;;;15.80;13.47;;;;;;;12.55;100.00;100123.28;6277277;22;20215;-87
2022/10/12 00:19:50;;;;;;;14.73;13.17;;;;;;;12.55;100.00;100116.00;6252199;22;20212;-89
2022/10/12 00:22:17;;;;;;;14.20;12.80;;;;;;;12.62;100.00;100126.72;6303926;22;20232;-85
2022/10/12 00:24:43;;;;;;;15.13;13.53;;;;;;;12.62;100.00;100121.34;6306464;22;20206;-85
2022/10/12 00:27:10;;;;;;;14.43;12.93;;;;;;;12.58;100.00;100123.66;6305683;22;20199;-91
2022/10/12 00:29:37;;;;;;;15.73;13.03;;;;;;;12.54;100.00;100119.75;6305858;22;20201;-84
2022/10/12 00:32:03;;;;;;;14.53;12.90;;;;;;;12.48;100.00;100117.13;6305124;22;20204;-84
2022/10/12 00:34:30;;;;;;;13.87;12.47;;;;;;;12.51;100.00;100125.56;6306004;22;20709;-84
2022/10/12 00:36:56;;;;;;;14.50;13.00;;;;;;;12.53;100.00;100125.34;6306043;22;20722;-86
2022/10/12 00:39:23;;;;;;;15.57;13.17;;;;;;;12.52;100.00;100116.47;6278796;22;20208;-85
2022/10/12 00:41:49;;;;;;;14.63;12.93;;;;;;;12.54;100.00;100117.06;6305863;22;20215;-86
2022/10/12 00:44:36;;;;;;;17.90;13.17;;;;;;;12.50;100.00;100123.94;6305682;22;20593;-84
2022/10/12 00:47:14;;;;;;;15.23;13.67;;;;;;;12.44;100.00;100130.19;6278989;22;20210;-85
2022/10/12 00:49:41;;;;;;;14.77;13.27;;;;;;;12.37;100.00;100129.41;6305812;22;20204;-83
2022/10/12 00:52:09;;;;;;;14.43;12.93;;;;;;;12.31;100.00;100133.81;6305152;22;20208;-84
2022/10/12 00:54:41;;;;;;;14.90;13.33;;;;;;;12.26;100.00;100128.25;6278423;22;20676;-84
2022/10/12 00:57:09;;;;;;;16.83;13.40;;;;;;;12.29;100.00;100129.69;6279024;22;20214;-85
2022/10/12 00:59:39;;;;;;;15.13;13.60;;;;;;;12.26;100.00;100136.31;6305841;22;20216;-87
2022/10/12 01:02:05;;;;;;;14.47;12.77;;;;;;;12.19;100.00;100129.34;6277676;22;20667;-84
2022/10/12 01:04:32;;;;;;;15.53;14.03;;;;;;;12.22;100.00;100129.75;6266481;22;20955;-86
2022/10/12 01:06:59;;;;;;;14.27;12.93;;;;;;;12.26;100.00;100120.19;6278204;22;20200;-84
2022/10/12 01:09:27;;;;;;;15.07;13.10;;;;;;;12.19;100.00;100118.59;6305346;22;20284;-84
2022/10/12 01:11:56;;;;;;;13.97;12.53;;;;;;;12.11;100.00;100116.16;6277977;22;20215;-84
2022/10/12 01:14:23;;;;;;;14.40;12.60;;;;;;;12.08;100.00;100116.63;6278265;22;20274;-90
2022/10/12 01:16:55;;;;;;;14.13;12.53;;;;;;;12.05;100.00;100115.19;6254072;22;20200;-90
2022/10/12 01:19:31;;;;;;;15.67;12.77;;;;;;;12.03;100.00;100122.66;6279485;22;20240;-90
2022/10/12 01:22:03;;;;;;;17.03;13.10;;;;;;;12.03;100.00;100124.50;6306622;22;20204;-90
2022/10/12 01:24:54;;;;;;;14.27;12.87;;;;;;;11.94;100.00;100123.13;6253848;22;20220;-91
2022/10/12 01:27:36;;;;;;;13.90;12.47;;;;;;;11.89;100.00;100126.44;6306559;22;20234;-91
2022/10/12 01:30:08;;;;;;;16.33;13.17;;;;;;;11.87;100.00;100129.34;6254120;22;20205;-91
2022/10/12 01:32:56;;;;;;;13.90;12.50;;;;;;;11.83;100.00;100130.81;6279900;22;20300;-91
2022/10/12 01:35:38;;;;;;;14.97;12.33;;;;;;;11.80;100.00;100128.53;6279561;22;20508;-91
2022/10/12 01:38:23;;;;;;;13.70;12.27;;;;;;;11.78;100.00;100135.19;6254073;22;20732;-91
2022/10/12 01:41:07;;;;;;;13.57;12.23;;;;;;;11.73;100.00;100121.56;6253855;22;20205;-89
2022/10/12 01:43:36;;;;;;;14.90;12.33;;;;;;;11.72;100.00;100131.50;6279290;22;20202;-92
2022/10/12 01:46:15;;;;;;;14.80;12.80;;;;;;;11.74;100.00;100131.28;6228569;22;20208;-91
2022/10/12 01:48:44;;;;;;;15.43;12.63;;;;;;;11.66;100.00;100121.59;6279202;22;20204;-91
2022/10/12 01:51:12;;;;;;;13.87;12.47;;;;;;;11.67;100.00;100125.06;6253815;22;20199;-91
2022/10/12 01:53:41;;;;;;;13.53;12.20;;;;;;;11.66;100.00;100128.81;6253711;22;20230;-90
2022/10/12 01:56:15;;;;;;;13.90;12.50;;;;;;;11.61;100.00;100125.97;6305266;22;20262;-89
2022/10/12 01:59:17;;;;;;;13.67;12.37;;;;;;;11.56;100.00;100126.59;6305927;22;20219;-89
2022/10/12 02:01:56;;;;;;;13.40;12.20;;;;;;;11.47;100.00;100133.25;6279022;22;20211;-90
2022/10/12 02:04:36;;;;;;;13.63;12.23;;;;;;;11.39;100.00;100128.09;6278236;22;20732;-90
2022/10/12 02:07:08;;;;;;;13.50;11.87;;;;;;;11.37;100.00;100128.34;6277416;22;20713;-90
2022/10/12 02:09:36;;;;;;;14.13;12.67;;;;;;;11.34;100.00;100128.72;6253950;22;20255;-91
2022/10/12 02:12:08;;;;;;;14.20;12.70;;;;;;;11.36;100.00;100131.22;6252371;22;20204;-89
2022/10/12 02:14:39;;;;;;;14.53;13.13;;;;;;;11.35;100.00;100127.72;6278719;22;20212;-89
2022/10/12 02:17:09;;;;;;;13.40;12.07;;;;;;;11.29;100.00;100125.06;6278842;22;20204;-89
2022/10/12 02:19:39;;;;;;;13.33;12.03;;;;;;;11.23;100.00;100117.88;6303869;22;20199;-89
2022/10/12 02:22:07;;;;;;;15.00;12.50;;;;;;;11.21;100.00;100120.75;6278044;22;20203;-91
2022/10/12 02:24:36;;;;;;;15.10;12.40;;;;;;;11.20;100.00;100121.78;6278065;22;20215;-90
2022/10/12 02:27:03;;;;;;;14.03;12.60;;;;;;;11.19;100.00;100119.31;6278167;22;20212;-89
2022/10/12 02:29:36;;;;;;;13.77;12.47;;;;;;;11.18;100.00;100115.00;6253193;22;20624;-88
2022/10/12 02:32:30;;;;;;;14.97;13.40;;;;;;;11.06;100.00;100119.38;6278455;22;20208;-90
2022/10/12 02:35:32;;;;;;;15.33;13.60;;;;;;;11.00;100.00;100124.53;6305534;22;20199;-89
2022/10/12 02:38:06;;;;;;;14.23;12.83;;;;;;;10.94;100.00;100117.31;6306320;22;20293;-87
2022/10/12 02:40:42;;;;;;;14.53;13.13;;;;;;;10.97;100.00;100124.94;6278238;22;20227;-90
2022/10/12 02:43:20;;;;;;;13.53;12.33;;;;;;;10.98;100.00;100120.41;6252930;22;20208;-90
2022/10/12 02:45:47;;;;;;;14.67;13.17;;;;;;;10.98;100.00;100123.09;6252495;22;20252;-90
2022/10/12 02:48:17;;;;;;;14.23;12.73;;;;;;;10.94;100.00;100113.81;6277544;22;20203;-90
2022/10/12 02:50:44;;;;;;;14.17;12.77;;;;;;;10.91;100.00;100120.44;6278149;22;20204;-91
2022/10/12 02:53:11;;;;;;;15.17;12.67;;;;;;;10.78;100.00;100125.78;6252255;22;20210;-90
2022/10/12 02:55:47;;;;;;;14.30;12.80;;;;;;;10.77;100.00;100123.34;6236064;22;20199;-91
2022/10/12 02:58:14;;;;;;;15.40;13.10;;;;;;;10.76;100.00;100121.69;6252216;22;20233;-90
2022/10/12 03:00:41;;;;;;;13.20;12.00;;;;;;;10.75;100.00;100120.88;6252734;22;20210;-90
2022/10/12 03:03:08;;;;;;;14.47;12.83;;;;;;;10.66;100.00;100121.28;6227640;22;20203;-89
2022/10/12 03:05:34;;;;;;;14.43;13.00;;;;;;;10.63;100.00;100127.06;6252955;22;20203;-91
2022/10/12 03:08:01;;;;;;;14.07;12.57;;;;;;;10.62;100.00;100130.78;6277498;22;20207;-89
2022/10/12 03:10:27;;;;;;;13.47;12.27;;;;;;;10.59;100.00;100119.44;6227792;22;20199;-89
2022/10/12 03:12:54;;;;;;;14.37;12.80;;;;;;;10.64;100.00;100123.38;6252512;22;20207;-90
2022/10/12 03:15:21;;;;;;;14.07;12.67;;;;;;;10.63;100.00;100117.19;6253511;22;20191;-90
2022/10/12 03:17:47;;;;;;;14.30;12.40;;;;;;;10.63;100.00;100124.41;6253061;22;20200;-90
2022/10/12 03:20:14;;;;;;;12.53;11.20;;;;;;;10.61;100.00;100119.25;6305000;22;20211;-91
2022/10/12 03:22:40;;;;;;;13.83;12.63;;;;;;;10.59;100.00;100113.28;6305763;22;20652;-90
2022/10/12 03:25:07;;;;;;;14.80;12.50;;;;;;;10.53;100.00;100108.75;6278285;22;20207;-89
2022/10/12 03:27:34;;;;;;;13.97;12.50;;;;;;;10.51;100.00;100106.25;6305681;22;20207;-90
2022/10/12 03:30:01;;;;;;;14.77;12.10;;;;;;;10.61;100.00;100113.88;6252533;22;20512;-89
2022/10/12 03:32:28;;;;;;;13.30;12.10;;;;;;;10.53;100.00;100106.06;6252976;22;20226;-89
2022/10/12 03:34:54;;;;;;;13.60;12.30;;;;;;;10.51;100.00;100108.09;6227764;22;20203;-91
2022/10/12 03:37:21;;;;;;;13.03;11.73;;;;;;;10.43;100.00;100105.66;6278477;22;20203;-88
2022/10/12 03:39:48;;;;;;;12.90;11.80;;;;;;;10.38;100.00;100116.16;6228055;22;20214;-89
2022/10/12 03:42:14;;;;;;;13.67;12.27;;;;;;;10.40;100.00;100116.78;6276554;22;20207;-89
2022/10/12 03:44:41;;;;;;;13.37;12.17;;;;;;;10.38;100.00;100111.63;6227872;22;20205;-89
2022/10/12 03:47:08;;;;;;;14.00;12.67;;;;;;;10.39;100.00;100118.63;6227676;22;20203;-89
2022/10/12 03:49:34;;;;;;;14.40;13.00;;;;;;;10.46;100.00;100122.13;6253020;22;20213;-89
2022/10/12 03:52:01;;;;;;;14.37;12.47;;;;;;;10.47;100.00;100118.41;6277735;22;20211;-89
2022/10/12 03:54:28;;;;;;;13.77;12.37;;;;;;;10.51;100.00;100116.16;6304963;22;20203;-90
2022/10/12 03:56:54;;;;;;;14.27;12.97;;;;;;;10.51;100.00;100108.94;6252545;22;20225;-89
2022/10/12 03:59:21;;;;;;;14.00;12.53;;;;;;;10.56;100.00;100117.19;6303166;22;20207;-87
2022/10/12 04:01:47;;;;;;;15.33;13.80;;;;;;;10.60;100.00;100125.63;6303142;22;20262;-86
2022/10/12 04:04:14;;;;;;;15.17;13.67;;;;;;;10.56;100.00;100117.19;6303885;22;20203;-90
2022/10/12 04:06:41;;;;;;;13.83;12.50;;;;;;;10.59;100.00;100114.06;6304189;22;20222;-84
2022/10/12 04:09:07;;;;;;;14.10;12.50;;;;;;;10.61;100.00;100113.88;6304215;22;20211;-84
2022/10/12 04:11:34;;;;;;;14.13;12.20;;;;;;;10.58;100.00;100120.50;6303621;22;20234;-84
2022/10/12 04:14:01;;;;;;;14.60;13.10;;;;;;;10.66;100.00;100115.94;6303381;22;20203;-83
2022/10/12 04:16:27;;;;;;;14.50;13.00;;;;;;;10.74;100.00;100115.69;6303753;22;20203;-84
2022/10/12 04:18:56;;;;;;;14.07;12.57;;;;;;;10.78;100.00;100123.13;6276618;22;20530;-85
2022/10/12 04:21:24;;;;;;;13.40;12.20;;;;;;;10.73;100.00;100122.13;6303825;22;20209;-85
2022/10/12 04:23:51;;;;;;;13.80;12.40;;;;;;;10.75;100.00;100125.41;6276860;22;20276;-85
2022/10/12 04:26:17;;;;;;;13.07;11.87;;;;;;;10.75;100.00;100130.75;6303104;22;20212;-85
2022/10/12 04:28:45;;;;;;;13.80;12.47;;;;;;;10.78;100.00;100131.16;6303937;22;20261;-84
2022/10/12 04:31:12;;;;;;;13.67;12.37;;;;;;;10.82;100.00;100120.88;6305096;22;20203;-84
2022/10/12 04:33:38;;;;;;;13.20;11.90;;;;;;;10.84;100.00;100130.34;6305869;22;20204;-85
2022/10/12 04:36:05;;;;;;;13.23;11.93;;;;;;;10.84;100.00;100121.47;6305559;22;20210;-89
2022/10/12 04:38:31;;;;;;;12.93;11.67;;;;;;;10.84;100.00;100135.69;6306240;22;20199;-86
2022/10/12 04:40:58;;;;;;;13.67;12.40;;;;;;;10.88;100.00;100133.41;6278909;22;20203;-89
2022/10/12 04:43:25;;;;;;;13.20;11.90;;;;;;;10.84;100.00;100126.81;6304253;22;20652;-87
2022/10/12 04:45:58;;;;;;;13.77;12.13;;;;;;;10.86;100.00;100124.78;6278075;22;20521;-86
2022/10/12 04:48:25;;;;;;;14.57;13.07;;;;;;;10.82;100.00;100113.66;6304494;22;20224;-85
2022/10/12 04:50:52;;;;;;;14.20;12.80;;;;;;;10.91;100.00;100103.53;6304570;22;20268;-85
2022/10/12 04:53:19;;;;;;;14.30;12.57;;;;;;;10.82;100.00;100096.75;6304724;22;20697;-85
2022/10/12 04:55:45;;;;;;;13.63;12.23;;;;;;;10.70;100.00;100104.59;6304412;22;20210;-85
2022/10/12 04:58:13;;;;;;;14.17;12.67;;;;;;;10.68;100.00;100103.16;6304583;22;20187;-85
2022/10/12 05:00:39;;;;;;;15.23;13.60;;;;;;;10.62;100.00;100104.81;6276102;22;20256;-85
2022/10/12 05:03:06;;;;;;;14.17;12.67;;;;;;;10.60;100.00;100107.69;6278211;22;20207;-85
2022/10/12 05:05:34;;;;;;;14.47;12.93;;;;;;;10.52;100.00;100094.53;6278616;22;20201;-85
2022/10/12 05:08:02;;;;;;;14.47;13.10;;;;;;;10.46;100.00;100111.41;6304733;22;20218;-83
2022/10/12 05:10:28;;;;;;;13.70;12.43;;;;;;;10.45;100.00;100107.06;6305413;22;20206;-85
2022/10/12 05:12:55;;;;;;;15.10;13.27;;;;;;;10.48;100.00;100108.53;6305177;22;20203;-85
2022/10/12 05:15:21;;;;;;;16.73;12.83;;;;;;;10.56;100.00;100113.66;6303425;22;20199;-85
2022/10/12 05:17:48;;;;;;;14.70;13.30;;;;;;;10.47;100.00;100109.56;6278601;22;20207;-85
2022/10/12 05:20:15;;;;;;;14.10;12.80;;;;;;;10.48;100.00;100113.91;6304836;22;20203;-86
2022/10/12 05:22:41;;;;;;;14.20;12.70;;;;;;;10.49;100.00;100110.19;6305975;22;20222;-85
2022/10/12 05:25:08;;;;;;;13.97;12.57;;;;;;;10.45;100.00;100119.69;6305403;22;20226;-86
2022/10/12 05:27:35;;;;;;;14.07;12.70;;;;;;;10.49;100.00;100123.59;6274493;22;20215;-87
2022/10/12 05:30:03;;;;;;;14.23;12.83;;;;;;;10.46;100.00;100121.31;6273631;22;20287;-85
2022/10/12 05:32:29;;;;;;;15.60;12.90;;;;;;;10.53;100.00;100132.84;6274555;22;20200;-86
2022/10/12 05:34:56;;;;;;;15.27;12.60;;;;;;;10.54;100.00;100129.94;6274434;22;20204;-86
2022/10/12 05:37:22;;;;;;;14.43;12.93;;;;;;;10.51;100.00;100127.69;6274229;22;20203;-84
2022/10/12 05:39:50;;;;;;;14.03;12.60;;;;;;;10.56;100.00;100138.63;6274516;22;20208;-87
2022/10/12 05:42:17;;;;;;;13.70;12.40;;;;;;;10.56;100.00;100145.81;6272926;22;20203;-85
2022/10/12 05:44:44;;;;;;;13.60;12.30;;;;;;;10.62;100.00;100144.19;6274885;22;20180;-86
2022/10/12 05:47:10;;;;;;;13.30;12.10;;;;;;;10.60;100.00;100145.19;6274184;22;20204;-85
2022/10/12 05:49:37;;;;;;;13.77;12.47;;;;;;;10.64;100.00;100150.97;6274074;22;20207;-87
2022/10/12 05:52:03;;;;;;;14.87;13.27;;;;;;;10.64;100.00;100147.50;6246929;22;20204;-87
2022/10/12 05:54:30;;;;;;;13.80;12.40;;;;;;;10.72;100.00;100155.31;6222244;22;20529;-86
2022/10/12 05:56:56;;;;;;;79.73;68.80;;;;;;;10.75;100.00;100163.75;6247628;22;20197;-85
2022/10/12 05:59:23;;;;;;;21.90;19.63;;;;;;;10.86;100.00;100165.81;6274606;22;20211;-85
2022/10/12 06:01:50;;;;;;;14.20;12.70;;;;;;;10.98;100.00;100164.13;6247448;22;20205;-85
2022/10/12 06:04:16;;;;;;;13.37;12.07;;;;;;;11.10;100.00;100166.19;6258130;22;20222;-85
2022/10/12 06:06:43;;;;;;;13.13;11.83;;;;;;;11.12;100.00;100159.56;6274695;22;20236;-89
2022/10/12 06:09:11;;;;;;;13.97;12.67;;;;;;;11.20;100.00;100163.88;6248739;22;20206;-87
2022/10/12 06:11:38;;;;;;;14.53;11.40;;;;;;;11.24;100.00;100165.13;6222931;22;20211;-90
2022/10/12 06:14:04;;;;;;;13.43;12.03;;;;;;;11.39;100.00;100166.50;6247560;22;20207;-89
2022/10/12 06:16:31;;;;;;;12.50;11.20;;;;;;;11.56;100.00;100176.75;6222821;22;20200;-91
2022/10/12 06:18:58;;;;;;;12.93;11.63;;;;;;;11.62;100.00;100183.97;6248463;22;20204;-91
2022/10/12 06:21:24;;;;;;;13.63;11.77;;;;;;;11.68;100.00;100175.88;6198011;22;20208;-91
2022/10/12 06:23:59;;;;;;;13.67;11.63;;;;;;;11.80;100.00;100184.91;6272660;22;20211;-92
2022/10/12 06:26:26;;;;;;;13.83;11.10;;;;;;;11.63;100.00;100175.69;6237255;22;20206;-89
2022/10/12 06:28:52;;;;;;;13.90;10.27;;;;;;;11.80;100.00;100181.44;6252457;22;20223;-86
2022/10/12 06:31:19;;;;;;;11.17;9.77;;;;;;;11.76;100.00;100178.34;6278447;22;20208;-87
2022/10/12 06:33:49;;;;;;;10.70;8.77;;;;;;;11.87;100.00;100168.78;6305156;22;20266;-90
2022/10/12 06:36:15;;;;;;;12.03;8.87;;;;;;;12.01;100.00;100178.41;6304707;22;20286;-90
2022/10/12 06:38:42;;;;;;;9.80;8.43;;;;;;;12.09;100.00;100180.00;6278378;22;20219;-87
2022/10/12 06:41:08;;;;;;;12.47;8.63;;;;;;;12.11;100.00;100176.09;6305335;22;20207;-90
2022/10/12 06:43:35;;;;;;;10.03;8.80;;;;;;;12.33;100.00;100188.13;6278465;22;20218;-89
2022/10/12 06:46:02;;;;;;;10.03;8.47;;;;;;;12.51;100.00;100195.44;6252192;22;20214;-91
2022/10/12 06:48:29;;;;;;;10.30;7.70;;;;;;;12.49;100.00;100192.16;6254034;22;20266;-91
2022/10/12 06:50:55;;;;;;;10.20;7.20;;;;;;;12.64;100.00;100195.34;6252852;22;20211;-88
2022/10/12 06:53:22;;;;;;;11.03;7.70;;;;;;;12.94;100.00;100203.56;6252543;22;20206;-91
2022/10/12 06:55:49;;;;;;;9.70;6.90;;;;;;;12.92;100.00;100194.09;6253032;22;20205;-92
2022/10/12 06:58:15;;;;;;;12.07;6.53;;;;;;;12.80;100.00;100202.03;6226669;22;20283;-89
2022/10/12 07:00:42;;;;;;;8.30;6.13;;;;;;;12.72;100.00;100196.94;6253028;22;20728;-88
2022/10/12 07:03:11;;;;;;;7.80;5.80;;;;;;;13.18;100.00;100202.75;6277440;22;20204;-91
2022/10/12 07:05:38;;;;;;;10.13;6.00;;;;;;;13.29;100.00;100197.69;6251871;22;20208;-90
2022/10/12 07:08:05;;;;;;;8.40;5.10;;;;;;;13.11;100.00;100206.56;6304190;22;20213;-87
2022/10/12 07:10:32;;;;;;;9.57;5.60;;;;;;;13.05;100.00;100207.41;6277984;22;20298;-86
2022/10/12 07:12:58;;;;;;;9.80;5.57;;;;;;;13.30;100.00;100210.09;6304825;22;20203;-88
2022/10/12 07:15:25;;;;;;;6.80;5.47;;;;;;;13.35;100.00;100204.84;6277881;22;20200;-89
2022/10/12 07:17:52;;;;;;;9.30;5.90;;;;;;;13.58;100.00;100204.97;6304699;22;20212;-90
2022/10/12 07:20:18;;;;;;;8.33;5.90;;;;;;;13.55;100.00;100197.38;6304035;22;20211;-89
2022/10/12 07:22:45;;;;;;;6.93;6.07;;;;;;;13.97;100.00;100209.06;6277683;22;20200;-88
2022/10/12 07:25:12;;;;;;;9.80;5.90;;;;;;;13.74;100.00;100209.78;6304490;22;20214;-85
2022/10/12 07:27:38;;;;;;;11.57;6.70;;;;;;;13.83;100.00;100199.50;6277578;22;20676;-88
2022/10/12 07:30:06;;;;;;;8.40;6.30;;;;;;;13.87;100.00;100204.22;6303922;22;20212;-87
2022/10/12 07:32:33;;;;;;;11.30;6.27;;;;;;;13.75;100.00;100189.88;6304810;22;20675;-86
2022/10/12 07:35:00;;;;;;;10.27;6.30;;;;;;;13.50;100.00;100191.84;6304875;22;20193;-88
2022/10/12 07:37:26;;;;;;;9.10;6.00;;;;;;;13.31;100.00;100190.19;6277694;22;20212;-87
2022/10/12 07:39:56;;;;;;;9.47;6.37;;;;;;;13.77;100.00;100195.03;6304922;22;20532;-87
2022/10/12 07:42:24;;;;;;;9.70;6.20;;;;;;;14.16;100.00;100193.66;6276652;22;20700;-90
2022/10/12 07:44:50;;;;;;;10.27;6.40;;;;;;;14.03;100.00;100194.69;6304791;22;20199;-89
2022/10/12 07:47:18;;;;;;;8.97;5.70;;;;;;;13.99;100.00;100197.03;6278115;22;20541;-88
2022/10/12 07:49:45;;;;;;;8.80;5.77;;;;;;;14.41;92.16;100195.19;6304499;22;20209;-89
2022/10/12 07:52:11;;;;;;;9.90;5.33;;;;;;;14.34;86.11;100185.53;6303990;22;20311;-89
2022/10/12 07:54:38;;;;;;;8.90;5.90;;;;;;;14.53;88.11;100184.44;6304925;22;20550;-89
2022/10/12 07:57:05;;;;;;;11.83;5.50;;;;;;;14.05;88.08;100189.88;6277835;22;20215;-89
2022/10/12 07:59:31;;;;;;;9.93;5.67;;;;;;;14.13;87.68;100186.06;6304478;22;20205;-87
2022/10/12 08:01:58;;;;;;;10.47;5.40;;;;;;;14.16;85.55;100185.59;6252449;22;20197;-89
2022/10/12 08:04:25;;;;;;;7.20;5.17;;;;;;;14.28;83.99;100175.66;6304774;22;20252;-88
2022/10/12 08:06:51;;;;;;;9.93;5.10;;;;;;;14.21;84.35;100173.06;6305083;22;20208;-88
2022/10/12 08:09:18;;;;;;;9.30;5.17;;;;;;;14.91;82.72;100181.31;6306660;22;20214;-89
2022/10/12 08:11:44;;;;;;;7.90;4.80;;;;;;;15.36;78.79;100184.19;6306409;22;20698;-88
2022/10/12 08:14:13;;;;;;;7.90;5.70;;;;;;;15.80;76.88;100174.63;6278670;22;20211;-89
2022/10/12 08:16:43;;;;;;;6.93;5.20;;;;;;;15.65;73.88;100174.31;6306488;22;20654;-88
2022/10/12 08:19:10;;;;;;;8.63;5.30;;;;;;;15.49;72.89;100167.72;6279315;22;20196;-88
2022/10/12 08:21:37;;;;;;;11.30;5.40;;;;;;;15.63;73.03;100176.44;6228956;22;20206;-87
2022/10/12 08:24:03;;;;;;;7.07;4.90;;;;;;;15.64;72.65;100178.06;6304737;22;20207;-88
2022/10/12 08:26:32;;;;;;;6.80;5.20;;;;;;;15.72;72.75;100175.00;6306198;22;20202;-87
2022/10/12 08:28:58;;;;;;;7.33;4.27;;;;;;;16.16;70.39;100176.09;6306439;22;20203;-92
2022/10/12 08:31:25;;;;;;;7.10;5.07;;;;;;;16.25;70.03;100175.47;6279024;22;20222;-88
2022/10/12 08:33:51;;;;;;;9.47;5.43;;;;;;;15.65;69.54;100177.00;6305532;22;20215;-86
2022/10/12 08:36:18;;;;;;;9.03;5.47;;;;;;;16.14;70.64;100172.84;6278539;22;20213;-89
2022/10/12 08:38:49;;;;;;;8.77;5.73;;;;;;;16.12;68.75;100170.38;6305962;22;20203;-87
2022/10/12 08:41:20;;;;;;;7.30;5.00;;;;;;;16.28;68.92;100176.88;6279169;22;20299;-88
2022/10/12 08:44:02;;;;;;;7.93;4.80;;;;;;;16.13;68.37;100172.03;6306033;22;20211;-88
2022/10/12 08:46:28;;;;;;;8.90;5.60;;;;;;;16.12;67.36;100180.34;6305928;22;20203;-87
2022/10/12 08:49:06;;;;;;;8.40;5.10;;;;;;;16.33;66.58;100173.44;6306192;22;20735;-88
2022/10/12 08:51:43;;;;;;;8.73;5.27;;;;;;;16.39;66.77;100177.84;6306307;22;20711;-86
2022/10/12 08:54:12;;;;;;;9.93;6.03;;;;;;;16.77;65.46;100171.75;6278546;22;20211;-85
2022/10/12 08:56:40;;;;;;;11.90;5.90;;;;;;;16.61;65.30;100176.13;6306384;22;20207;-86
2022/10/12 08:59:14;;;;;;;9.67;5.83;;;;;;;16.77;66.13;100177.16;6253227;22;20200;-85
2022/10/12 09:02:02;;;;;;;8.67;5.73;;;;;;;16.87;64.24;100174.63;6279112;22;20279;-85
2022/10/12 09:04:53;;;;;;;8.57;5.90;;;;;;;17.11;63.15;100178.78;6304167;22;20278;-85
2022/10/12 09:07:26;;;;;;;8.43;5.83;;;;;;;16.57;65.08;100178.44;6253012;22;20215;-83
2022/10/12 09:09:58;;;;;;;7.97;5.17;;;;;;;15.82;66.95;100175.19;6278962;22;20211;-84
2022/10/12 09:13:03;;;;;;;9.83;5.70;;;;;;;15.96;67.43;100173.03;6305300;22;20253;-85
2022/10/12 09:15:59;;;;;;;8.10;6.07;;;;;;;15.98;66.15;100171.72;6305517;22;20231;-84
2022/10/12 09:18:28;;;;;;;9.13;5.63;;;;;;;16.54;66.03;100175.41;6254026;22;20203;-84
2022/10/12 09:20:56;;;;;;;8.10;6.27;;;;;;;16.67;65.32;100170.53;6278423;22;20199;-84
2022/10/12 09:23:25;;;;;;;7.40;5.93;;;;;;;16.27;68.20;100176.06;6305465;22;20219;-86
2022/10/12 09:26:15;;;;;;;8.97;6.27;;;;;;;16.87;64.61;100170.03;6278825;22;20527;-85
2022/10/12 09:28:45;;;;;;;8.33;6.57;;;;;;;16.64;64.19;100175.63;6277998;22;20222;-86
2022/10/12 09:31:26;;;;;;;11.60;6.30;;;;;;;17.05;63.74;100177.88;6278604;22;20285;-86
2022/10/12 09:33:55;;;;;;;8.33;7.00;;;;;;;17.11;63.16;100174.19;6305356;22;20238;-85
2022/10/12 09:36:25;;;;;;;10.60;6.87;;;;;;;17.46;62.01;100186.56;6262773;22;20222;-86
2022/10/12 09:38:52;;;;;;;9.07;6.50;;;;;;;17.65;60.88;100181.69;6305448;22;20253;-86
2022/10/12 09:41:24;;;;;;;8.90;6.43;;;;;;;17.96;59.90;100181.78;6278628;22;20203;-85
2022/10/12 09:43:54;;;;;;;11.23;6.63;;;;;;;17.55;61.02;100176.94;6278300;22;20200;-85
2022/10/12 09:46:32;;;;;;;8.60;7.37;;;;;;;17.53;60.29;100179.91;6277477;22;20286;-84
2022/10/12 09:48:59;;;;;;;8.47;6.97;;;;;;;17.77;60.17;100171.56;6305434;22;20719;-85
2022/10/12 09:51:27;;;;;;;8.40;7.10;;;;;;;17.71;59.62;100172.56;6252291;22;20253;-84
2022/10/12 09:53:54;;;;;;;9.00;7.10;;;;;;;18.08;58.67;100172.69;6278088;22;20249;-84
2022/10/12 09:56:31;;;;;;;7.80;7.00;;;;;;;18.20;58.63;100179.59;6278464;22;20211;-85
2022/10/12 09:59:03;;;;;;;9.20;6.50;;;;;;;18.36;58.68;100172.44;6278819;22;20253;-84
2022/10/12 10:01:32;;;;;;;7.27;6.13;;;;;;;18.19;58.53;100179.88;6278355;22;20668;-85
2022/10/12 10:04:22;;;;;;;8.67;7.20;;;;;;;17.48;61.09;100177.13;6305131;22;20204;-85
2022/10/12 10:06:49;;;;;;;9.83;6.63;;;;;;;17.85;60.64;100169.22;6277456;22;20238;-85
2022/10/12 10:09:33;;;;;;;8.13;6.77;;;;;;;17.46;60.48;100178.44;6252491;22;20253;-85
2022/10/12 10:12:21;;;;;;;9.83;6.90;;;;;;;17.66;61.09;100181.44;6277856;22;20211;-84
2022/10/12 10:14:50;;;;;;;8.20;7.17;;;;;;;17.95;59.61;100176.63;6277411;22;20195;-85
2022/10/12 10:17:23;;;;;;;9.40;6.63;;;;;;;17.95;59.81;100172.03;6277737;22;20223;-84
2022/10/12 10:19:50;;;;;;;8.30;7.03;;;;;;;17.79;59.84;100175.63;6277716;22;20608;-84
2022/10/12 10:22:18;;;;;;;10.33;6.87;;;;;;;17.47;61.89;100177.38;6304577;22;20204;-83
2022/10/12 10:24:52;;;;;;;8.37;7.07;;;;;;;17.26;61.96;100162.75;6304977;22;20214;-83
2022/10/12 10:27:36;;;;;;;10.97;6.43;;;;;;;17.94;60.68;100164.97;6255292;22;20214;-84
2022/10/12 10:30:15;;;;;;;13.07;6.73;;;;;;;18.30;60.26;100162.59;6277691;22;20556;-85
2022/10/12 10:33:16;;;;;;;7.87;7.00;;;;;;;17.88;60.16;100165.97;6304591;22;20643;-83
2022/10/12 10:35:54;;;;;;;9.33;7.20;;;;;;;18.42;58.39;100164.09;6278121;22;20242;-85
2022/10/12 10:38:21;;;;;;;9.50;7.00;;;;;;;19.06;56.95;100161.34;6277436;22;20226;-85
2022/10/12 10:40:52;;;;;;;7.97;6.63;;;;;;;19.26;56.19;100157.94;6252207;22;20276;-84
2022/10/12 10:43:27;;;;;;;9.63;7.17;;;;;;;18.69;58.05;100161.34;6277439;22;20279;-84
2022/10/12 10:45:57;;;;;;;10.40;7.30;;;;;;;19.00;56.83;100156.94;6304524;22;20207;-85
2022/10/12 10:48:28;;;;;;;8.77;7.13;;;;;;;18.17;57.88;100147.56;6277153;22;20214;-85
2022/10/12 10:50:59;;;;;;;9.87;7.03;;;;;;;18.97;57.25;100154.75;6304668;22;20245;-84
2022/10/12 10:53:30;;;;;;;8.50;6.73;;;;;;;18.81;58.00;100147.59;6277415;22;20216;-85
2022/10/12 10:56:07;;;;;;;9.47;6.90;;;;;;;19.19;57.45;100150.00;6252033;22;20237;-82
2022/10/12 10:58:49;;;;;;;8.43;7.20;;;;;;;18.66;57.83;100151.03;6277588;22;20203;-84
2022/10/12 11:01:31;;;;;;;9.07;7.10;;;;;;;19.06;56.49;100142.31;6304365;22;20212;-86
2022/10/12 11:04:01;;;;;;;9.40;7.07;;;;;;;19.13;56.59;100134.75;6277863;22;20211;-84
2022/10/12 11:06:38;;;;;;;10.13;7.50;;;;;;;19.56;55.32;100132.81;6277371;22;20739;-82
2022/10/12 11:09:20;;;;;;;8.97;6.70;;;;;;;19.93;54.30;100138.09;6277850;22;20209;-83
2022/10/12 11:11:56;;;;;;;8.03;6.63;;;;;;;19.86;55.00;100130.19;6304572;22;20287;-83
2022/10/12 11:14:27;;;;;;;9.13;6.73;;;;;;;19.67;56.14;100127.16;6276987;22;20266;-83
2022/10/12 11:16:58;;;;;;;9.00;6.87;;;;;;;20.26;54.19;100128.63;6277334;22;20265;-83
2022/10/12 11:19:36;;;;;;;8.50;6.53;;;;;;;19.79;55.28;100135.88;6277424;22;20520;-84
2022/10/12 11:22:09;;;;;;;8.97;7.50;;;;;;;19.48;56.39;100130.59;6275106;22;20236;-83